Time;durP1;ratioP1;P1;durP2;ratioP2;P2;SDS_P1;SDS_P2;PMS_P1;PMS_P2;Temp;Humidity;BMP_temperature;BMP_pressure;BME280_temperature;BME280_humidity;BME280_pressure;Samples;Min_cycle;Max_cycle;Signal;HPM_P1;HPM_P2
2022/01/20 00:02:06;;;;;;;6.47;3.20;;;;;;;-1.09;72.23;101897.77;1817753;77;21054;-58
2022/01/20 00:03:58;;;;;;;5.62;2.90;;;;;;;-1.11;72.17;101897.72;1803542;79;21089;-60
2022/01/20 00:09:32;;;;;;;7.30;3.00;;;;;;;-1.06;72.10;101897.86;1819934;79;21061;-59
2022/01/20 00:26:04;;;;;;;6.28;2.72;;;;;;;-1.00;71.95;101888.96;1756063;81;21157;-59
2022/01/20 00:28:40;;;;;;;6.90;2.70;;;;;;;-1.00;71.88;101888.96;1784627;80;21163;-61
2022/01/20 00:31:10;;;;;;;5.00;2.87;;;;;;;-1.02;71.92;101895.80;1763751;81;21074;-63
2022/01/20 00:38:40;;;;;;;6.80;3.10;;;;;;;-1.03;71.96;101885.02;1793032;80;21546;-59
2022/01/20 00:41:15;;;;;;;5.03;3.33;;;;;;;-1.01;71.93;101881.63;1818540;79;21094;-61
2022/01/20 00:43:41;;;;;;;7.45;3.05;;;;;;;-1.02;71.83;101882.45;1818118;79;21113;-61
2022/01/20 00:46:09;;;;;;;4.25;2.52;;;;;;;-1.00;71.83;101887.67;1818629;79;21038;-63
2022/01/20 00:48:38;;;;;;;8.43;2.83;;;;;;;-1.02;71.85;101880.30;1818516;79;21145;-60
2022/01/20 00:51:08;;;;;;;4.78;2.65;;;;;;;-1.02;71.84;101882.45;1818689;79;21512;-60
2022/01/20 00:53:43;;;;;;;4.15;2.70;;;;;;;-1.04;71.83;101874.21;1818712;79;21034;-61
2022/01/20 00:56:08;;;;;;;6.10;3.12;;;;;;;-1.04;71.90;101873.78;1819367;79;21089;-61
2022/01/20 00:58:37;;;;;;;4.10;2.75;;;;;;;-1.05;71.84;101878.91;1819962;79;21081;-60
2022/01/20 01:01:06;;;;;;;4.22;2.47;;;;;;;-1.06;71.83;101873.30;1819799;79;21069;-60
2022/01/20 01:03:35;;;;;;;5.90;2.50;;;;;;;-1.04;71.88;101879.38;1819981;79;21601;-60
2022/01/20 01:06:21;;;;;;;7.03;2.80;;;;;;;-1.09;71.78;101868.03;1820016;79;21093;-60
2022/01/20 01:08:34;;;;;;;6.15;2.87;;;;;;;-1.09;71.86;101870.62;1815553;79;21042;-60
2022/01/20 01:11:03;;;;;;;3.80;2.75;;;;;;;-1.11;71.96;101869.28;1819872;79;21152;-62
2022/01/20 01:13:32;;;;;;;6.87;2.70;;;;;;;-1.12;72.04;101874.01;1820048;77;21515;-60
2022/01/20 01:16:01;;;;;;;4.67;3.30;;;;;;;-1.11;72.05;101871.86;1819987;79;21089;-62
2022/01/20 01:24:03;;;;;;;3.47;2.22;;;;;;;-1.13;71.95;101868.80;1819893;78;21054;-60
2022/01/20 01:26:32;;;;;;;4.85;2.87;;;;;;;-1.12;71.96;101861.52;1817092;79;21555;-60
2022/01/20 01:29:03;;;;;;;5.62;2.90;;;;;;;-1.13;71.98;101870.09;1812453;79;21152;-60
2022/01/20 01:31:38;;;;;;;9.25;3.10;;;;;;;-1.11;71.98;101874.88;1812171;79;21136;-61
2022/01/20 01:34:06;;;;;;;6.90;2.65;;;;;;;-1.11;71.95;101874.88;1810939;79;21078;-61
2022/01/20 01:36:46;;;;;;;3.92;2.40;;;;;;;-1.11;71.92;101874.45;1813913;79;21105;-61
2022/01/20 01:39:02;;;;;;;3.90;2.55;;;;;;;-1.11;71.93;101871.00;1817029;79;21136;-61
2022/01/20 01:41:35;;;;;;;3.50;2.50;;;;;;;-1.11;71.85;101864.53;1819936;79;21630;-63
2022/01/20 01:44:06;;;;;;;6.10;3.15;;;;;;;-1.12;71.87;101864.09;1821794;77;21107;-63
2022/01/20 01:46:33;;;;;;;5.25;2.90;;;;;;;-1.16;71.79;101859.27;1826047;78;21555;-63
2022/01/20 01:49:03;;;;;;;4.45;2.70;;;;;;;-1.18;71.79;101866.97;1826309;78;21063;-60
2022/01/20 01:51:32;;;;;;;4.92;3.08;;;;;;;-1.19;71.83;101856.16;1826245;78;21488;-61
2022/01/20 01:54:02;;;;;;;5.42;3.15;;;;;;;-1.20;71.77;101862.57;1826027;78;21061;-61
2022/01/20 01:56:32;;;;;;;4.58;3.10;;;;;;;-1.23;71.77;101864.67;1798226;78;21037;-61
2022/01/20 01:59:00;;;;;;;5.83;3.00;;;;;;;-1.21;71.80;101865.58;1826043;78;21053;-62
2022/01/20 02:01:42;;;;;;;4.40;2.70;;;;;;;-1.20;71.79;101869.93;1823204;78;21148;-58
2022/01/20 02:04:18;;;;;;;4.47;2.65;;;;;;;-1.19;71.72;101865.20;1826189;78;21061;-59
2022/01/20 02:07:11;;;;;;;6.40;3.42;;;;;;;-1.19;71.70;101872.95;1825276;78;21172;-59
2022/01/20 02:17:47;;;;;;;7.20;2.98;;;;;;;-1.20;71.70;101875.09;1821937;78;21075;-59
2022/01/20 02:17:53;;;;;;;5.60;2.77;;;;;;;-1.25;71.85;101875.38;1826022;78;21656;-58
2022/01/20 02:20:13;;;;;;;6.35;3.10;;;;;;;-1.26;71.81;101875.34;1825911;78;21093;-59
2022/01/20 02:22:36;;;;;;;5.95;3.30;;;;;;;-1.26;71.85;101876.20;1823716;78;21143;-61
2022/01/20 02:25:21;;;;;;;5.37;2.42;;;;;;;-1.27;71.89;101873.57;1824854;78;21076;-60
2022/01/20 02:27:50;;;;;;;5.37;2.87;;;;;;;-1.28;71.99;101872.70;1826285;77;21036;-61
2022/01/20 02:30:20;;;;;;;4.60;2.10;;;;;;;-1.33;72.11;101876.86;1826372;78;21044;-61
2022/01/20 02:32:57;;;;;;;4.03;2.70;;;;;;;-1.35;72.01;101872.07;1826066;78;21654;-63
2022/01/20 02:35:28;;;;;;;6.08;3.08;;;;;;;-1.42;71.99;101865.88;1824536;78;21062;-60
2022/01/20 02:38:05;;;;;;;10.58;4.20;;;;;;;-1.40;71.94;101873.25;1826300;78;21067;-59
2022/01/20 02:44:50;;;;;;;7.60;4.60;;;;;;;-1.43;71.94;101881.33;1825279;78;21059;-61
2022/01/20 02:45:49;;;;;;;8.58;4.17;;;;;;;-1.40;71.99;101874.97;1826275;78;21111;-60
2022/01/20 02:48:18;;;;;;;4.80;3.62;;;;;;;-1.39;71.96;101871.11;1826092;78;21120;-59
2022/01/20 02:50:47;;;;;;;8.25;4.50;;;;;;;-1.37;71.89;101868.57;1826011;78;21151;-59
2022/01/20 02:53:16;;;;;;;7.58;3.87;;;;;;;-1.33;71.82;101874.70;1825998;78;21025;-62
2022/01/20 02:55:44;;;;;;;5.40;3.08;;;;;;;-1.32;71.70;101874.75;1825874;78;21152;-62
2022/01/20 02:58:13;;;;;;;4.75;2.85;;;;;;;-1.31;71.67;101879.10;1825872;78;21061;-59
2022/01/20 03:00:42;;;;;;;6.78;3.52;;;;;;;-1.28;71.62;101875.28;1826194;78;21551;-60
2022/01/20 03:03:10;;;;;;;4.60;2.85;;;;;;;-1.28;71.43;101872.70;1825941;78;21069;-61
2022/01/20 03:05:39;;;;;;;5.15;3.30;;;;;;;-1.35;71.40;101873.36;1825943;78;21069;-61
2022/01/20 03:08:09;;;;;;;7.40;3.40;;;;;;;-1.39;71.24;101879.28;1825852;78;21137;-65
2022/01/20 03:10:38;;;;;;;5.80;3.30;;;;;;;-1.48;71.33;101878.59;1826295;78;21051;-60
2022/01/20 03:13:07;;;;;;;5.37;3.42;;;;;;;-1.47;71.41;101884.66;1826170;78;21556;-61
2022/01/20 03:15:36;;;;;;;5.22;3.22;;;;;;;-1.45;71.40;101885.58;1826158;78;21556;-61
2022/01/20 03:18:06;;;;;;;5.37;3.22;;;;;;;-1.42;71.34;101881.37;1826191;78;21114;-62
2022/01/20 03:20:35;;;;;;;4.92;2.90;;;;;;;-1.41;71.35;101891.28;1826078;78;21069;-64
2022/01/20 03:23:05;;;;;;;7.78;3.80;;;;;;;-1.43;71.41;101892.52;1826093;78;21103;-64
2022/01/20 03:25:35;;;;;;;5.28;3.12;;;;;;;-1.41;71.43;101892.58;1826377;78;21186;-65
2022/01/20 03:28:04;;;;;;;7.08;3.72;;;;;;;-1.43;71.31;101887.36;1826112;78;21031;-62
2022/01/20 03:30:34;;;;;;;8.03;3.80;;;;;;;-1.45;71.34;101890.74;1826172;78;21059;-60
2022/01/20 03:33:04;;;;;;;5.80;3.05;;;;;;;-1.46;71.35;101890.27;1825967;77;21277;-61
2022/01/20 03:35:34;;;;;;;10.30;5.22;;;;;;;-1.50;71.32;101887.14;1826396;78;21101;-61
2022/01/20 03:38:07;;;;;;;;;;;;;;;-1.58;71.15;101886.50;1824955;77;21134;-59
2022/01/20 03:40:36;;;;;;;6.70;3.85;;;;;;;-1.63;69.08;101882.91;1826339;78;20150;-61
2022/01/20 03:43:05;;;;;;;5.87;2.83;;;;;;;-1.79;70.65;101890.63;1826295;78;21095;-63
2022/01/20 03:45:34;;;;;;;10.32;5.90;;;;;;;-1.88;70.35;101884.29;1818300;78;21180;-61
2022/01/20 03:48:09;;;;;;;7.90;4.65;;;;;;;-1.94;69.83;101886.27;1800574;80;21565;-59
2022/01/20 03:53:21;;;;;;;8.03;3.85;;;;;;;-2.14;69.52;101893.39;1800640;80;21085;-59
2022/01/20 03:55:50;;;;;;;7.72;3.60;;;;;;;-2.22;69.85;101896.16;1800693;79;21550;-61
2022/01/20 03:58:19;;;;;;;10.75;4.80;;;;;;;-2.15;69.97;101900.27;1800497;79;21504;-60
2022/01/20 04:00:48;;;;;;;7.90;4.83;;;;;;;-2.10;70.14;101895.66;1800669;79;21658;-58
2022/01/20 04:03:19;;;;;;;9.48;4.20;;;;;;;-1.98;70.00;101898.63;1799018;80;21092;-61
2022/01/20 04:08:33;;;;;;;17.20;5.95;;;;;;;-2.03;69.78;101898.50;1799988;78;21121;-62
2022/01/20 04:11:04;;;;;;;17.95;7.53;;;;;;;-1.99;69.83;101917.63;1800669;80;21598;-62
2022/01/20 04:13:33;;;;;;;17.27;7.97;;;;;;;-1.96;70.37;101917.63;1800576;79;21041;-61
2022/01/20 04:16:13;;;;;;;14.90;7.37;;;;;;;-1.93;70.18;101912.98;1800514;79;21101;-62
2022/01/20 04:18:37;;;;;;;12.15;6.42;;;;;;;-1.89;70.37;101910.95;1799178;80;21050;-63
2022/01/20 04:21:05;;;;;;;14.25;6.17;;;;;;;-1.87;70.54;101907.58;1800647;80;21097;-60
2022/01/20 04:23:34;;;;;;;15.23;7.10;;;;;;;-1.88;70.58;101899.78;1800614;80;21169;-63
2022/01/20 04:26:03;;;;;;;5.65;3.50;;;;;;;-1.80;70.69;101913.82;1800648;80;21077;-60
2022/01/20 04:28:32;;;;;;;11.33;5.87;;;;;;;-1.79;70.72;101919.03;1800612;80;21574;-63
2022/01/20 04:31:00;;;;;;;14.40;6.83;;;;;;;-1.79;70.69;101921.62;1800638;80;21065;-63
2022/01/20 04:33:30;;;;;;;16.42;7.12;;;;;;;-1.78;70.69;101927.65;1800567;78;21083;-61
2022/01/20 04:35:59;;;;;;;13.48;7.12;;;;;;;-1.75;70.73;101922.59;1800535;79;21116;-61
2022/01/20 04:38:28;;;;;;;13.18;6.45;;;;;;;-1.73;70.71;101923.51;1800633;80;21194;-60
2022/01/20 04:40:57;;;;;;;14.40;7.08;;;;;;;-1.71;70.70;101919.27;1800779;78;21527;-62
2022/01/20 04:43:27;;;;;;;11.50;5.65;;;;;;;-1.69;70.78;101917.59;1800689;78;21595;-59
2022/01/20 04:59:32;;;;;;;14.45;7.10;;;;;;;-1.63;70.96;101926.81;1820049;79;21084;-60
2022/01/20 05:02:01;;;;;;;13.35;7.10;;;;;;;-1.63;70.96;101926.81;1819964;79;21069;-60
2022/01/20 05:04:31;;;;;;;14.30;6.85;;;;;;;-1.63;70.93;101929.81;1815530;77;21580;-62
2022/01/20 05:07:02;;;;;;;14.05;6.62;;;;;;;-1.62;70.95;101935.03;1815146;79;21125;-64
2022/01/20 05:09:31;;;;;;;17.32;8.15;;;;;;;-1.70;70.65;101935.20;1819971;79;21152;-63
2022/01/20 05:12:09;;;;;;;21.00;8.73;;;;;;;-1.67;70.77;101930.14;1819988;79;21085;-60
2022/01/20 05:14:31;;;;;;;14.20;7.05;;;;;;;-1.66;70.81;101924.16;1818719;78;21152;-62
2022/01/20 05:17:01;;;;;;;19.40;6.42;;;;;;;-1.68;70.80;101920.63;1820075;79;21139;-62
2022/01/20 05:19:32;;;;;;;17.80;8.70;;;;;;;-1.61;70.81;101934.19;1819852;78;21563;-61
2022/01/20 05:22:01;;;;;;;16.10;6.75;;;;;;;-1.59;70.86;101932.52;1820149;79;21065;-62
2022/01/20 05:24:38;;;;;;;14.78;6.60;;;;;;;-1.57;70.94;101933.47;1820719;79;21126;-61
2022/01/20 05:27:08;;;;;;;16.07;8.63;;;;;;;-1.60;71.00;101940.25;1823133;79;21554;-60
2022/01/20 05:29:36;;;;;;;15.60;7.15;;;;;;;-1.58;71.00;101932.13;1823184;79;21060;-61
2022/01/20 05:32:06;;;;;;;15.72;7.78;;;;;;;-1.59;70.98;101935.11;1822683;79;21243;-62
2022/01/20 05:34:35;;;;;;;16.52;7.45;;;;;;;-1.54;70.89;101934.39;1823308;77;21106;-62
2022/01/20 05:37:05;;;;;;;17.30;7.37;;;;;;;-1.54;70.98;101934.39;1823084;79;21219;-62
2022/01/20 05:39:33;;;;;;;14.03;7.45;;;;;;;-1.52;70.87;101936.60;1823132;79;21500;-59
2022/01/20 05:42:03;;;;;;;16.30;6.87;;;;;;;-1.53;70.62;101934.44;1822771;79;21040;-60
2022/01/20 05:44:33;;;;;;;12.50;6.30;;;;;;;-1.52;70.59;101935.31;1820867;79;21082;-62
2022/01/20 05:47:11;;;;;;;14.98;6.42;;;;;;;-1.47;70.67;101934.61;1816820;78;21077;-62
2022/01/20 05:49:35;;;;;;;12.80;6.53;;;;;;;-1.44;70.74;101928.25;1776773;79;21112;-63
2022/01/20 05:52:06;;;;;;;17.00;7.00;;;;;;;-1.34;70.74;101933.69;1800633;79;21175;-63
2022/01/20 05:54:34;;;;;;;16.80;7.78;;;;;;;-1.30;70.73;101929.93;1800520;80;21045;-63
2022/01/20 05:57:04;;;;;;;15.68;6.87;;;;;;;-1.22;70.66;101926.27;1800579;79;21157;-61
2022/01/20 05:59:34;;;;;;;14.60;6.70;;;;;;;-1.10;70.57;101937.39;1769454;80;21053;-62
2022/01/20 06:02:11;;;;;;;15.08;7.17;;;;;;;-1.00;70.43;101936.79;1800690;80;21176;-62
2022/01/20 06:04:33;;;;;;;14.33;6.60;;;;;;;-0.88;70.36;101930.67;1798337;80;21181;-60
2022/01/20 06:07:03;;;;;;;15.90;7.67;;;;;;;-0.73;70.32;101926.75;1800523;79;21085;-59
2022/01/20 06:09:32;;;;;;;17.45;7.28;;;;;;;-0.54;70.20;101930.25;1800563;79;21038;-59
2022/01/20 06:12:01;;;;;;;14.85;6.70;;;;;;;-0.23;69.94;101932.33;1800683;79;21069;-64
2022/01/20 06:14:30;;;;;;;15.25;6.90;;;;;;;0.27;69.63;101932.63;1800709;78;21132;-66
2022/01/20 06:16:58;;;;;;;11.20;6.10;;;;;;;0.78;68.86;101932.44;1800770;80;21104;-64
2022/01/20 06:19:27;;;;;;;12.75;5.62;;;;;;;1.31;68.26;101922.61;1800569;79;21061;-62
2022/01/20 06:21:56;;;;;;;9.78;5.72;;;;;;;1.95;67.45;101921.96;1801498;78;21551;-63
2022/01/20 06:24:25;;;;;;;10.30;6.08;;;;;;;2.59;66.70;101919.41;1800560;79;21548;-62
2022/01/20 06:26:54;;;;;;;13.08;6.50;;;;;;;3.13;66.16;101923.94;1800338;78;21602;-63
2022/01/20 06:29:25;;;;;;;9.00;5.90;;;;;;;3.52;65.69;101918.67;1800562;80;21125;-64
2022/01/20 06:31:54;;;;;;;9.80;5.75;;;;;;;4.06;64.66;101923.45;1800295;78;21078;-61
2022/01/20 06:34:22;;;;;;;9.45;5.75;;;;;;;4.70;63.95;101919.88;1798990;78;21046;-61
2022/01/20 06:36:51;;;;;;;10.23;5.72;;;;;;;5.24;63.33;101918.33;1813638;78;21660;-62
2022/01/20 06:39:20;;;;;;;13.35;5.70;;;;;;;5.93;62.36;101922.70;1805154;78;21077;-63
2022/01/20 06:41:49;;;;;;;8.85;5.62;;;;;;;6.52;60.99;101919.12;1810787;78;21050;-66
2022/01/20 06:44:18;;;;;;;7.83;5.15;;;;;;;6.95;59.76;101914.14;1847729;78;21159;-61
2022/01/20 06:46:48;;;;;;;10.20;5.80;;;;;;;7.30;59.19;101922.23;1847621;78;21485;-62
2022/01/20 06:49:19;;;;;;;8.25;5.40;;;;;;;7.49;57.33;101910.75;1806762;77;21151;-62
2022/01/20 06:51:57;;;;;;;8.28;5.75;;;;;;;7.81;57.25;101911.37;1791437;78;21180;-64
2022/01/20 06:54:26;;;;;;;6.47;5.00;;;;;;;8.04;56.23;101907.20;1791934;80;21163;-65
2022/01/20 06:56:55;;;;;;;8.28;5.50;;;;;;;8.09;55.61;101903.66;1791969;80;21172;-64
2022/01/20 06:59:24;;;;;;;8.95;5.37;;;;;;;8.41;54.91;101906.41;1791854;80;21056;-63
2022/01/20 07:01:53;;;;;;;6.37;5.00;;;;;;;8.59;53.72;101905.78;1791881;80;21656;-60
2022/01/20 07:04:27;;;;;;;6.62;4.70;;;;;;;8.88;53.30;101909.35;1796491;80;21112;-59
2022/01/20 07:06:56;;;;;;;7.37;5.65;;;;;;;9.25;51.89;101918.89;1791956;80;21070;-58
2022/01/20 07:09:39;;;;;;;7.35;5.00;;;;;;;9.46;50.59;101920.77;1789870;79;21072;-58
2022/01/20 07:12:18;;;;;;;9.35;5.28;;;;;;;9.83;50.39;101926.75;1785923;80;21652;-58
2022/01/20 07:14:47;;;;;;;9.13;5.15;;;;;;;10.27;49.79;101934.75;1787591;80;21121;-58
2022/01/20 07:17:16;;;;;;;8.93;6.08;;;;;;;10.42;49.12;101928.80;1789298;79;21073;-59
2022/01/20 07:19:46;;;;;;;8.85;5.80;;;;;;;10.51;48.38;101913.70;1790351;79;21080;-57
2022/01/20 07:22:16;;;;;;;9.63;6.60;;;;;;;10.78;47.04;101914.91;1790728;80;21081;-58
2022/01/20 07:24:47;;;;;;;8.15;5.20;;;;;;;11.13;46.53;101907.54;1790674;80;21073;-58
2022/01/20 07:27:21;;;;;;;8.30;5.95;;;;;;;11.47;45.83;101899.28;1788106;80;21135;-58
2022/01/20 07:29:49;;;;;;;9.15;6.33;;;;;;;11.83;45.47;101901.47;1790772;79;21030;-58
2022/01/20 07:32:18;;;;;;;6.95;5.30;;;;;;;12.06;43.62;101896.95;1790602;80;21089;-58
2022/01/20 07:34:47;;;;;;;8.48;5.53;;;;;;;12.55;42.75;101894.70;1790508;80;21532;-61
2022/01/20 07:37:15;;;;;;;7.30;5.53;;;;;;;12.57;41.03;101903.45;1790593;80;21069;-57
2022/01/20 07:39:44;;;;;;;6.87;5.00;;;;;;;12.61;41.06;101905.09;1790640;80;21085;-57
2022/01/20 07:42:14;;;;;;;7.67;4.53;;;;;;;12.95;41.29;101902.78;1790766;80;21054;-59
2022/01/20 07:44:53;;;;;;;9.30;4.42;;;;;;;13.11;40.01;101898.77;1762417;80;21193;-59
2022/01/20 07:47:34;;;;;;;7.20;5.12;;;;;;;13.31;41.15;101889.34;1747472;82;21154;-59
2022/01/20 07:50:03;;;;;;;6.95;5.20;;;;;;;13.71;40.62;101897.30;1790191;79;21152;-59
2022/01/20 07:52:32;;;;;;;5.05;3.77;;;;;;;14.04;39.88;101895.74;1790053;80;21061;-59
2022/01/20 07:55:02;;;;;;;7.53;4.42;;;;;;;14.40;39.44;101898.83;1790041;80;21097;-58
2022/01/20 07:57:32;;;;;;;6.12;4.60;;;;;;;14.53;38.18;101899.25;1790344;80;21120;-58
2022/01/20 08:00:01;;;;;;;6.58;5.12;;;;;;;14.96;38.16;101906.95;1791645;80;21060;-59
2022/01/20 08:02:32;;;;;;;9.68;4.47;;;;;;;15.15;36.87;101908.41;1788606;80;21130;-59
2022/01/20 08:05:01;;;;;;;7.80;4.50;;;;;;;15.08;36.74;101902.08;1791715;80;21156;-59
2022/01/20 08:07:30;;;;;;;7.12;4.50;;;;;;;14.84;36.54;101900.31;1791758;80;21222;-59
2022/01/20 08:09:59;;;;;;;6.83;4.72;;;;;;;12.96;38.45;101900.53;1791888;80;21192;-59
2022/01/20 08:12:29;;;;;;;9.05;4.67;;;;;;;12.58;38.38;101905.20;1791615;80;21124;-60
2022/01/20 08:15:03;;;;;;;6.83;4.25;;;;;;;12.40;38.16;101907.91;1791414;80;21072;-59
2022/01/20 08:17:47;;;;;;;6.17;4.27;;;;;;;12.18;37.73;101904.98;1789947;80;21085;-59
2022/01/20 08:20:16;;;;;;;7.20;4.55;;;;;;;12.79;37.70;101908.12;1791691;80;21085;-59
2022/01/20 08:22:47;;;;;;;9.75;4.83;;;;;;;13.11;36.46;101904.05;1790697;80;21547;-61
2022/01/20 08:25:18;;;;;;;6.47;3.87;;;;;;;13.16;36.04;101899.06;1791613;80;21904;-59
2022/01/20 08:27:48;;;;;;;9.55;5.12;;;;;;;14.09;36.08;101907.02;1791801;80;21086;-59
2022/01/20 08:30:20;;;;;;;6.10;4.17;;;;;;;14.63;34.48;101908.63;1791818;80;21123;-59
2022/01/20 08:32:50;;;;;;;6.87;4.08;;;;;;;14.80;34.04;101895.20;1791731;80;21118;-59
2022/01/20 08:35:31;;;;;;;7.47;4.25;;;;;;;15.30;33.90;101883.52;1788997;79;21213;-59
2022/01/20 08:37:59;;;;;;;6.25;4.58;;;;;;;15.60;33.22;101882.27;1791486;79;21109;-60
2022/01/20 08:40:28;;;;;;;5.92;3.77;;;;;;;15.85;32.09;101881.24;1791914;79;21204;-59
2022/01/20 08:42:58;;;;;;;8.03;4.53;;;;;;;15.57;30.53;101877.07;1791727;80;21664;-59
2022/01/20 08:45:30;;;;;;;6.97;4.60;;;;;;;15.30;31.26;101881.72;1791703;80;21122;-58
2022/01/20 08:48:00;;;;;;;7.30;4.67;;;;;;;15.32;31.28;101879.86;1791619;80;21078;-60
2022/01/20 08:50:32;;;;;;;7.28;4.78;;;;;;;15.66;31.31;101872.28;1761999;79;21096;-61
2022/01/20 08:53:01;;;;;;;7.28;4.35;;;;;;;15.75;30.68;101866.62;1792132;80;21104;-60
2022/01/20 08:55:33;;;;;;;5.65;4.15;;;;;;;16.18;30.82;101868.27;1792017;80;21239;-60
2022/01/20 08:58:07;;;;;;;6.72;4.30;;;;;;;16.66;30.06;101870.57;1790522;80;21594;-59
2022/01/20 09:00:37;;;;;;;6.58;4.45;;;;;;;16.49;30.68;101869.99;1791932;80;21262;-60
2022/01/20 09:03:09;;;;;;;8.30;4.65;;;;;;;16.72;28.80;101868.47;1792019;80;21143;-61
2022/01/20 09:05:39;;;;;;;5.97;4.50;;;;;;;16.68;29.63;101868.70;1791930;80;21209;-60
2022/01/20 09:08:12;;;;;;;6.42;4.83;;;;;;;16.91;28.49;101871.17;1791496;80;21150;-59
2022/01/20 09:10:51;;;;;;;6.53;4.53;;;;;;;16.78;28.93;101861.99;1791939;80;21119;-61
2022/01/20 09:16:02;;;;;;;4.83;3.50;;;;;;;14.29;32.00;101878.49;1791960;80;21160;-59
2022/01/20 09:18:39;;;;;;;7.15;4.55;;;;;;;14.18;32.70;101872.25;1801625;78;21171;-59
2022/01/20 09:21:08;;;;;;;6.50;4.50;;;;;;;15.22;31.43;101863.46;1792033;80;21496;-59
2022/01/20 09:23:38;;;;;;;6.00;4.20;;;;;;;15.87;29.75;101860.79;1791946;80;21143;-57
2022/01/20 09:26:07;;;;;;;9.33;4.35;;;;;;;16.70;29.28;101858.84;1792077;79;21195;-60
2022/01/20 09:28:38;;;;;;;5.97;4.40;;;;;;;17.36;28.35;101856.55;1791838;80;21100;-61
2022/01/20 09:31:08;;;;;;;5.67;4.05;;;;;;;17.32;27.67;101854.98;1792062;80;21052;-59
2022/01/20 09:33:37;;;;;;;6.85;4.30;;;;;;;16.98;26.98;101849.11;1792081;80;21049;-61
2022/01/20 09:36:12;;;;;;;6.42;4.05;;;;;;;16.88;27.49;101842.05;1792037;79;21828;-59
2022/01/20 09:38:37;;;;;;;6.42;4.45;;;;;;;17.45;27.69;101841.92;1791530;80;21065;-59
2022/01/20 09:41:08;;;;;;;4.58;3.47;;;;;;;18.01;27.94;101841.28;1792093;80;21143;-59
2022/01/20 09:43:37;;;;;;;6.17;3.77;;;;;;;18.58;27.42;101831.55;1791959;80;21143;-59
2022/01/20 09:46:06;;;;;;;4.45;3.33;;;;;;;18.15;27.77;101833.90;1791976;80;21583;-60
2022/01/20 09:48:37;;;;;;;6.53;3.40;;;;;;;18.09;27.18;101830.20;1791861;80;21558;-60
2022/01/20 09:51:13;;;;;;;6.08;4.37;;;;;;;17.73;26.36;101819.20;1791422;79;21179;-59
2022/01/20 09:53:50;;;;;;;8.08;4.90;;;;;;;16.57;25.31;101816.87;1791733;79;21071;-59
2022/01/20 09:56:41;;;;;;;7.85;4.12;;;;;;;14.90;27.31;101822.30;1790966;80;21143;-58
2022/01/20 09:59:11;;;;;;;8.23;4.53;;;;;;;15.16;27.49;101826.58;1768511;80;21574;-58
2022/01/20 10:01:50;;;;;;;8.15;3.75;;;;;;;14.53;27.54;101820.20;1761580;81;21492;-58
2022/01/20 10:04:33;;;;;;;6.30;3.50;;;;;;;14.28;28.17;101818.03;1761614;80;21529;-58
2022/01/20 10:07:09;;;;;;;8.35;4.45;;;;;;;13.99;29.32;101819.09;1762003;80;21149;-59
2022/01/20 10:09:44;;;;;;;10.32;4.85;;;;;;;15.14;28.36;101826.22;1761682;80;21088;-58
2022/01/20 10:12:16;;;;;;;4.75;2.40;;;;;;;15.11;27.24;101820.59;1756274;81;21092;-58
2022/01/20 10:14:57;;;;;;;7.22;3.92;;;;;;;15.61;27.10;101817.60;1762464;80;21092;-58
2022/01/20 10:17:46;;;;;;;10.75;5.45;;;;;;;15.69;27.24;101816.41;1761483;79;21253;-58
2022/01/20 10:20:16;;;;;;;10.90;4.95;;;;;;;16.08;26.91;101815.13;1761895;80;21064;-60
2022/01/20 10:22:56;;;;;;;8.98;4.03;;;;;;;16.47;26.55;101811.61;1794999;78;21112;-59
2022/01/20 10:25:43;;;;;;;10.80;3.80;;;;;;;16.74;26.70;101824.52;1791636;80;21137;-59
2022/01/20 10:28:14;;;;;;;4.83;3.27;;;;;;;16.70;26.40;101809.17;1789739;80;21250;-60
2022/01/20 10:30:44;;;;;;;7.30;3.00;;;;;;;16.95;26.03;101808.04;1791091;80;21100;-58
2022/01/20 10:33:13;;;;;;;8.23;3.08;;;;;;;16.70;26.46;101821.61;1791672;80;21544;-57
2022/01/20 10:35:44;;;;;;;6.85;2.87;;;;;;;16.43;26.95;101817.13;1791377;80;21581;-58
2022/01/20 10:38:16;;;;;;;5.55;3.02;;;;;;;16.29;27.26;101812.46;1789386;79;21504;-58
2022/01/20 10:40:59;;;;;;;8.53;4.00;;;;;;;15.79;27.14;101813.80;1790720;79;21151;-58
2022/01/20 10:43:32;;;;;;;7.33;2.85;;;;;;;14.55;27.70;101817.92;1791242;79;21503;-62
2022/01/20 10:46:08;;;;;;;6.50;3.17;;;;;;;13.64;29.27;101817.70;1791135;80;21128;-58
2022/01/20 10:48:38;;;;;;;4.22;2.15;;;;;;;13.03;30.28;101812.19;1791832;80;21600;-59
2022/01/20 10:51:22;;;;;;;5.78;2.77;;;;;;;12.20;29.18;101810.75;1791765;77;21200;-59
2022/01/20 10:54:01;;;;;;;5.35;2.42;;;;;;;11.37;31.32;101813.80;1791721;80;21182;-59
2022/01/20 10:56:31;;;;;;;4.55;3.17;;;;;;;11.00;32.16;101816.48;1791893;80;21078;-59
2022/01/20 10:59:09;;;;;;;5.87;3.12;;;;;;;10.75;32.92;101811.80;1792087;80;21127;-60
2022/01/20 11:01:38;;;;;;;7.28;3.00;;;;;;;10.36;32.13;101808.24;1792038;80;21045;-60
2022/01/20 11:04:09;;;;;;;7.12;3.00;;;;;;;9.93;33.23;101803.37;1792085;80;21077;-60
2022/01/20 11:06:40;;;;;;;4.47;2.75;;;;;;;9.51;34.06;101808.52;1792081;78;21151;-59
2022/01/20 11:09:21;;;;;;;5.80;2.87;;;;;;;9.22;34.47;101805.95;1791212;79;21097;-57
2022/01/20 11:11:57;;;;;;;6.17;2.72;;;;;;;9.20;33.51;101813.00;1769620;79;21080;-57
2022/01/20 11:14:29;;;;;;;13.53;6.05;;;;;;;10.01;33.05;101815.94;1789859;78;21072;-57
2022/01/20 11:16:59;;;;;;;14.07;7.15;;;;;;;10.78;32.50;101807.75;1792063;80;21539;-57
2022/01/20 11:19:31;;;;;;;6.95;3.90;;;;;;;10.86;32.60;101805.39;1792072;80;21081;-57
2022/01/20 11:22:11;;;;;;;4.75;2.17;;;;;;;10.73;32.49;101814.88;1791911;79;21057;-58
2022/01/20 11:24:43;;;;;;;6.45;2.77;;;;;;;10.72;30.43;101805.27;1792031;80;21635;-58
2022/01/20 11:27:16;;;;;;;5.53;2.92;;;;;;;10.42;30.70;101811.62;1769689;80;21146;-58
2022/01/20 11:29:55;;;;;;;11.83;4.47;;;;;;;10.63;31.37;101812.91;1789490;79;21107;-58
2022/01/20 11:32:35;;;;;;;11.43;5.15;;;;;;;10.60;31.12;101808.16;1787225;79;21053;-60
2022/01/20 11:35:10;;;;;;;4.50;2.72;;;;;;;11.50;30.86;101811.72;1791311;79;21209;-58
2022/01/20 11:37:41;;;;;;;4.35;2.40;;;;;;;12.55;29.72;101808.38;1792007;80;21057;-59
2022/01/20 11:40:13;;;;;;;6.08;2.12;;;;;;;12.93;29.47;101801.52;1791970;80;21049;-57
2022/01/20 11:42:41;;;;;;;4.60;2.27;;;;;;;13.03;29.66;101800.29;1792054;80;21056;-57
2022/01/20 11:45:26;;;;;;;4.67;2.12;;;;;;;12.51;29.20;101798.83;1792100;79;21577;-58
2022/01/20 11:47:55;;;;;;;4.47;2.20;;;;;;;11.56;30.04;101796.19;1791129;79;21151;-58
2022/01/20 11:50:25;;;;;;;4.87;2.22;;;;;;;11.20;30.27;101799.73;1791969;80;21065;-58
2022/01/20 11:52:53;;;;;;;5.33;2.27;;;;;;;11.12;30.41;101800.39;1791931;78;21124;-58
2022/01/20 11:55:22;;;;;;;3.40;1.80;;;;;;;10.72;30.20;101794.73;1791979;80;21092;-58
2022/01/20 11:57:51;;;;;;;3.05;1.30;;;;;;;10.34;30.82;101795.11;1791977;80;21160;-58
2022/01/20 12:00:23;;;;;;;4.83;1.20;;;;;;;9.81;30.95;101798.33;1791976;80;21057;-57
2022/01/20 12:02:53;;;;;;;3.52;1.50;;;;;;;9.51;31.89;101789.25;1792158;80;21094;-57
2022/01/20 12:05:28;;;;;;;1.32;1.00;;;;;;;9.80;31.99;101791.36;1790828;79;21126;-57
2022/01/20 12:08:15;;;;;;;2.70;1.40;;;;;;;10.54;31.46;101793.83;1763040;79;21475;-60
2022/01/20 12:10:45;;;;;;;2.12;1.15;;;;;;;10.87;29.02;101776.84;1791980;80;21241;-58
2022/01/20 12:13:19;;;;;;;3.10;1.20;;;;;;;10.54;29.67;101779.34;1790861;79;21611;-57
2022/01/20 12:15:57;;;;;;;3.58;1.00;;;;;;;10.57;30.23;101780.59;1792129;80;21049;-57
2022/01/20 12:18:27;;;;;;;3.27;1.10;;;;;;;10.90;30.59;101778.06;1791919;79;21163;-60
2022/01/20 12:20:57;;;;;;;4.78;1.20;;;;;;;10.71;30.32;101775.00;1792198;80;21143;-58
2022/01/20 12:23:27;;;;;;;2.30;1.30;;;;;;;10.54;30.50;101771.44;1776428;80;21049;-61
2022/01/20 12:25:59;;;;;;;2.85;1.20;;;;;;;10.53;30.77;101776.28;1791998;80;21053;-62
2022/01/20 12:28:28;;;;;;;6.60;2.30;;;;;;;10.15;31.39;101785.84;1822304;78;21054;-62
2022/01/20 12:31:00;;;;;;;6.58;2.35;;;;;;;9.10;32.25;101789.06;1826201;78;21053;-64
2022/01/20 12:33:31;;;;;;;6.67;1.92;;;;;;;8.05;33.08;101786.53;1790702;80;21124;-62
2022/01/20 12:36:05;;;;;;;3.60;1.35;;;;;;;7.20;34.24;101795.69;1790509;80;21062;-63
2022/01/20 12:38:38;;;;;;;2.92;1.40;;;;;;;6.64;34.37;101794.32;1790663;80;21162;-64
2022/01/20 12:41:24;;;;;;;3.67;1.57;;;;;;;6.27;35.20;101791.89;1772458;78;21068;-61